createdAt,value
2018-12-17T00:00:53.492Z,70.23
2018-12-17T00:03:21.106Z,68.83
2018-12-17T00:05:48.787Z,64.60
2018-12-17T00:08:16.461Z,59.47
2018-12-17T00:10:44.065Z,64.97
2018-12-17T00:13:11.652Z,59.67
2018-12-17T00:15:39.236Z,57.47
2018-12-17T00:18:06.839Z,63.60
2018-12-17T00:20:34.435Z,61.20
2018-12-17T00:23:02.005Z,60.97
2018-12-17T00:25:29.598Z,69.80
2018-12-17T00:27:57.170Z,67.30
2018-12-17T00:30:24.791Z,63.93
2018-12-17T00:32:52.378Z,66.57
2018-12-17T00:35:19.936Z,71.90
2018-12-17T00:37:47.496Z,68.50
2018-12-17T00:40:15.375Z,73.60
2018-12-17T00:42:43.015Z,74.00
2018-12-17T00:45:10.609Z,70.33
2018-12-17T00:47:38.197Z,81.27
2018-12-17T00:50:05.953Z,66.87
2018-12-17T00:52:33.560Z,65.10
2018-12-17T00:55:01.123Z,68.27
2018-12-17T00:57:28.686Z,72.03
2018-12-17T00:59:56.270Z,71.00
2018-12-17T01:02:23.856Z,61.40
2018-12-17T01:04:51.452Z,70.97
2018-12-17T01:07:21.034Z,67.10
2018-12-17T01:09:48.604Z,65.53
2018-12-17T01:12:16.185Z,60.70
2018-12-17T01:14:43.794Z,59.43
2018-12-17T01:17:11.445Z,57.37
2018-12-17T01:19:39.051Z,61.53
2018-12-17T01:22:06.622Z,58.83
2018-12-17T01:24:34.196Z,62.33
2018-12-17T01:27:01.840Z,58.83
2018-12-17T01:29:29.426Z,74.83
2018-12-17T01:31:57.031Z,55.43
2018-12-17T01:34:24.657Z,58.83
2018-12-17T01:36:52.230Z,62.47
2018-12-17T01:39:19.825Z,60.33
2018-12-17T01:41:47.391Z,60.30
2018-12-17T01:44:14.981Z,67.10
2018-12-17T01:46:42.613Z,68.17
2018-12-17T01:49:10.204Z,63.37
2018-12-17T01:51:37.807Z,61.93
2018-12-17T01:54:05.425Z,59.03
2018-12-17T01:56:33.044Z,65.33
2018-12-17T01:59:01.084Z,59.67
2018-12-17T02:01:28.686Z,56.37
2018-12-17T02:03:56.274Z,60.90
2018-12-17T02:06:23.851Z,53.83
2018-12-17T02:08:51.492Z,53.50
2018-12-17T02:11:19.112Z,58.70
2018-12-17T02:13:46.778Z,63.57
2018-12-17T02:16:14.382Z,58.90
2018-12-17T02:18:41.976Z,61.23
2018-12-17T02:21:09.571Z,56.83
2018-12-17T02:23:37.167Z,62.13
2018-12-17T02:26:04.889Z,59.77
2018-12-17T02:28:36.090Z,63.37
2018-12-17T02:31:02.059Z,62.33
2018-12-17T02:33:29.670Z,58.27
2018-12-17T02:35:57.286Z,60.40
2018-12-17T02:38:24.933Z,63.07
2018-12-17T02:40:52.494Z,57.17
2018-12-17T02:43:20.086Z,57.70
2018-12-17T02:45:47.751Z,57.20
2018-12-17T02:48:15.384Z,62.33
2018-12-17T02:50:42.960Z,51.67
2018-12-17T02:53:10.511Z,58.93
2018-12-17T02:55:38.084Z,58.07
2018-12-17T02:58:05.713Z,57.83
2018-12-17T03:00:33.279Z,62.33
2018-12-17T03:03:00.886Z,52.37
2018-12-17T03:05:28.460Z,51.13
2018-12-17T03:07:56.071Z,52.90
2018-12-17T03:10:23.682Z,57.10
2018-12-17T03:12:51.282Z,52.63
2018-12-17T03:15:18.968Z,56.07
2018-12-17T03:17:46.582Z,49.23
2018-12-17T03:20:14.172Z,48.10
2018-12-17T03:22:41.796Z,48.30
2018-12-17T03:25:09.395Z,50.70
2018-12-17T03:27:37.067Z,49.87
2018-12-17T03:30:06.413Z,49.20
2018-12-17T03:32:34.008Z,50.73
2018-12-17T03:35:01.589Z,53.47
2018-12-17T03:37:29.197Z,45.87
2018-12-17T03:39:56.769Z,45.37
2018-12-17T03:42:24.386Z,48.63
2018-12-17T03:44:51.950Z,54.77
2018-12-17T03:47:19.590Z,47.00
2018-12-17T03:49:47.164Z,47.53
2018-12-17T03:52:14.774Z,43.10
2018-12-17T03:54:42.494Z,46.27
2018-12-17T03:57:10.075Z,50.23
2018-12-17T03:59:37.698Z,42.70
2018-12-17T04:02:05.337Z,49.90
2018-12-17T04:04:32.934Z,47.03
2018-12-17T04:07:00.539Z,52.30
2018-12-17T04:09:28.101Z,45.53
2018-12-17T04:11:55.719Z,42.90
2018-12-17T04:14:23.266Z,40.80
2018-12-17T04:16:51.694Z,45.60
2018-12-17T04:19:19.261Z,41.43
2018-12-17T04:21:47.041Z,41.73
2018-12-17T04:24:15.432Z,44.60
2018-12-17T04:26:43.023Z,40.30
2018-12-17T04:29:10.621Z,42.27
2018-12-17T04:31:38.209Z,40.33
2018-12-17T04:34:05.807Z,40.77
2018-12-17T04:36:33.511Z,37.27
2018-12-17T04:39:01.070Z,41.97
2018-12-17T04:41:28.655Z,37.73
2018-12-17T04:43:56.209Z,39.20
2018-12-17T04:46:23.794Z,33.67
2018-12-17T04:48:51.405Z,40.97
2018-12-17T04:51:19.094Z,38.63
2018-12-17T04:53:46.683Z,37.93
2018-12-17T04:56:14.277Z,40.00
2018-12-17T04:58:42.015Z,34.23
2018-12-17T05:01:09.601Z,39.23
2018-12-17T05:03:37.394Z,38.43
2018-12-17T05:06:04.984Z,40.17
2018-12-17T05:08:32.619Z,41.97
2018-12-17T05:11:00.182Z,36.53
2018-12-17T05:13:27.756Z,34.67
2018-12-17T05:15:55.422Z,36.10
2018-12-17T05:18:23.019Z,31.63
2018-12-17T05:20:50.624Z,34.43
2018-12-17T05:23:18.858Z,37.47
2018-12-17T05:25:46.491Z,32.77
2018-12-17T05:28:14.072Z,35.53
2018-12-17T05:30:41.646Z,34.33
2018-12-17T05:33:09.309Z,30.97
2018-12-17T05:35:36.909Z,32.80
2018-12-17T05:38:04.534Z,30.17
2018-12-17T05:40:32.151Z,34.70
2018-12-17T05:42:59.740Z,33.03
2018-12-17T05:45:27.349Z,30.20
2018-12-17T05:47:54.908Z,31.53
2018-12-17T05:50:22.467Z,34.13
2018-12-17T05:52:50.055Z,31.50
2018-12-17T05:55:17.652Z,33.43
2018-12-17T05:57:45.278Z,31.93
2018-12-17T06:00:12.845Z,35.23
2018-12-17T06:02:40.435Z,31.27
2018-12-17T06:05:08.009Z,32.90
2018-12-17T06:07:35.610Z,31.97
2018-12-17T06:10:04.277Z,32.10
2018-12-17T06:12:31.900Z,31.87
2018-12-17T06:14:59.496Z,36.30
2018-12-17T06:17:27.200Z,29.73
2018-12-17T06:19:54.862Z,31.07
2018-12-17T06:22:22.469Z,32.17
2018-12-17T06:24:50.137Z,31.83
2018-12-17T06:27:17.751Z,31.67
2018-12-17T06:29:45.375Z,30.17
2018-12-17T06:32:12.989Z,29.83
2018-12-17T06:34:40.571Z,30.90
2018-12-17T06:37:08.168Z,30.13
2018-12-17T06:39:35.746Z,29.93
2018-12-17T06:42:03.324Z,26.43
2018-12-17T06:44:30.903Z,25.50
2018-12-17T06:46:58.533Z,28.67
2018-12-17T06:49:26.118Z,24.53
2018-12-17T06:51:54.293Z,25.67
2018-12-17T06:54:22.679Z,26.93
2018-12-17T06:56:50.263Z,25.77
2018-12-17T06:59:17.897Z,22.57
2018-12-17T07:01:45.866Z,25.77
2018-12-17T07:04:13.429Z,25.33
2018-12-17T07:06:41.024Z,23.30
2018-12-17T07:09:09.427Z,22.23
2018-12-17T07:11:37.003Z,24.47
2018-12-17T07:14:05.333Z,23.43
2018-12-17T07:16:33.026Z,23.23
2018-12-17T07:19:00.709Z,23.57
2018-12-17T07:21:28.313Z,22.13
2018-12-17T07:23:58.915Z,22.07
2018-12-17T07:26:25.512Z,20.40
2018-12-17T07:28:53.108Z,24.07
2018-12-17T07:31:20.667Z,19.27
2018-12-17T07:33:48.238Z,22.87
2018-12-17T07:36:15.818Z,19.73
2018-12-17T07:38:43.431Z,20.27
2018-12-17T07:41:11.012Z,23.77
2018-12-17T07:43:39.175Z,24.37
2018-12-17T07:46:06.797Z,23.13
2018-12-17T07:48:34.365Z,20.90
2018-12-17T07:51:02.038Z,21.00
2018-12-17T07:53:29.650Z,14.50
2018-12-17T07:55:57.321Z,21.17
2018-12-17T07:58:25.013Z,13.73
2018-12-17T08:00:52.616Z,15.30
2018-12-17T08:03:20.246Z,16.93
2018-12-17T08:05:47.896Z,16.90
2018-12-17T08:08:15.529Z,11.57
2018-12-17T08:10:43.144Z,9.57
2018-12-17T08:13:10.908Z,13.77
2018-12-17T08:15:38.594Z,18.50
2018-12-17T08:18:20.461Z,11.10
2018-12-17T08:20:49.493Z,12.83
2018-12-17T08:23:17.251Z,10.60
2018-12-17T08:25:45.034Z,15.87
2018-12-17T08:28:12.619Z,14.63
2018-12-17T08:30:40.166Z,12.73
2018-12-17T08:33:07.749Z,12.83
2018-12-17T08:35:35.342Z,7.57
2018-12-17T08:38:02.938Z,8.17
2018-12-17T08:40:30.507Z,10.80
2018-12-17T08:42:58.077Z,9.20
2018-12-17T08:45:25.637Z,9.63
2018-12-17T08:47:53.223Z,7.50
2018-12-17T08:50:20.768Z,9.30
2018-12-17T08:52:48.423Z,8.57
2018-12-17T08:55:16.020Z,9.97
2018-12-17T08:57:43.556Z,9.73
2018-12-17T09:00:11.458Z,10.00
2018-12-17T09:02:39.061Z,12.67
2018-12-17T09:05:06.761Z,13.60
2018-12-17T09:07:34.387Z,15.27
2018-12-17T09:10:02.012Z,15.47
2018-12-17T09:12:29.614Z,15.00
2018-12-17T09:14:57.266Z,16.47
2018-12-17T09:17:24.912Z,17.37
2018-12-17T09:19:52.520Z,12.27
2018-12-17T09:22:20.233Z,11.27
2018-12-17T09:24:47.835Z,15.30
2018-12-17T09:27:15.404Z,14.83
2018-12-17T09:29:43.026Z,14.30
2018-12-17T09:32:10.630Z,12.83
2018-12-17T09:34:38.200Z,12.07
2018-12-17T09:37:05.784Z,20.27
2018-12-17T09:39:33.348Z,14.07
2018-12-17T09:42:00.937Z,16.33
2018-12-17T09:44:28.544Z,18.50
2018-12-17T09:46:56.134Z,11.67
2018-12-17T09:49:24.089Z,16.17
2018-12-17T09:51:51.648Z,15.40
2018-12-17T09:54:19.322Z,11.60
2018-12-17T09:56:47.807Z,10.90
2018-12-17T09:59:15.404Z,15.43
2018-12-17T10:01:43.018Z,17.20
2018-12-17T10:04:10.601Z,17.03
2018-12-17T10:06:38.245Z,12.60
2018-12-17T10:09:05.971Z,14.37
2018-12-17T10:11:33.552Z,17.17
2018-12-17T10:14:02.400Z,16.40
2018-12-17T10:16:31.578Z,11.90
2018-12-17T10:18:59.194Z,10.63
2018-12-17T10:21:26.864Z,15.33
2018-12-17T10:23:54.657Z,17.47
2018-12-17T10:26:22.557Z,14.53
2018-12-17T10:28:50.219Z,11.03
2018-12-17T10:31:17.881Z,12.27
2018-12-17T10:33:45.691Z,12.13
2018-12-17T10:36:13.335Z,13.67
2018-12-17T10:38:40.924Z,13.83
2018-12-17T10:41:08.544Z,14.17
2018-12-17T10:43:36.223Z,8.67
2018-12-17T10:46:03.896Z,11.97
2018-12-17T10:48:31.580Z,10.00
2018-12-17T10:50:59.202Z,11.27
2018-12-17T10:53:26.849Z,7.80
2018-12-17T10:55:55.399Z,9.37
2018-12-17T10:58:23.057Z,6.93
2018-12-17T11:00:56.291Z,15.97
2018-12-17T11:03:25.885Z,14.33
2018-12-17T11:05:54.730Z,9.23
2018-12-17T11:08:22.303Z,4.47
2018-12-17T11:10:50.095Z,8.30
2018-12-17T11:13:17.793Z,7.37
2018-12-17T11:15:45.408Z,12.40
2018-12-17T11:18:13.014Z,9.03
2018-12-17T11:20:40.629Z,10.83
2018-12-17T11:23:08.215Z,8.00
2018-12-17T11:25:35.772Z,11.97
2018-12-17T11:28:03.354Z,10.50
2018-12-17T11:30:30.905Z,9.83
2018-12-17T11:32:58.496Z,7.47
2018-12-17T11:35:26.087Z,10.53
2018-12-17T11:37:53.654Z,8.40
2018-12-17T11:40:21.391Z,9.53
2018-12-17T11:42:49.070Z,7.07
2018-12-17T11:45:16.708Z,7.87
2018-12-17T11:47:44.335Z,9.97
2018-12-17T11:50:12.066Z,12.60
2018-12-17T11:52:39.722Z,10.77
2018-12-17T11:55:07.268Z,14.13
2018-12-17T11:57:42.787Z,8.43
2018-12-17T12:00:10.415Z,9.77
2018-12-17T12:02:38.001Z,10.90
2018-12-17T12:05:06.211Z,12.63
2018-12-17T12:07:33.818Z,10.87
2018-12-17T12:10:01.437Z,14.27
2018-12-17T12:12:29.026Z,11.40
2018-12-17T12:14:56.592Z,5.97
2018-12-17T12:17:24.191Z,8.70
2018-12-17T12:19:51.767Z,10.53
2018-12-17T12:22:19.376Z,10.87
2018-12-17T12:24:46.957Z,8.77
2018-12-17T12:27:14.533Z,12.17
2018-12-17T12:29:42.102Z,12.10
2018-12-17T12:32:09.733Z,9.70
2018-12-17T12:34:37.343Z,7.77
2018-12-17T12:37:05.018Z,11.47
2018-12-17T12:39:33.444Z,8.73
2018-12-17T12:42:01.041Z,10.43
2018-12-17T12:44:28.607Z,7.37
2018-12-17T12:46:56.196Z,8.00
2018-12-17T12:49:23.732Z,9.53
2018-12-17T12:51:52.738Z,8.63
2018-12-17T12:54:20.460Z,13.67
2018-12-17T12:56:48.019Z,9.67
2018-12-17T12:59:15.606Z,11.57
2018-12-17T13:01:43.190Z,12.20
2018-12-17T13:04:10.856Z,17.87
2018-12-17T13:06:38.454Z,10.20
2018-12-17T13:09:07.210Z,7.43
2018-12-17T13:11:34.807Z,8.33
2018-12-17T13:14:02.383Z,9.20
2018-12-17T13:16:29.953Z,11.33
2018-12-17T13:18:57.542Z,7.63
2018-12-17T13:21:25.164Z,12.10
2018-12-17T13:23:52.750Z,8.97
2018-12-17T13:26:20.370Z,12.70
2018-12-17T13:28:47.951Z,11.57
2018-12-17T13:31:15.506Z,11.33
2018-12-17T13:33:43.097Z,11.67
2018-12-17T13:36:10.644Z,12.13
2018-12-17T13:38:38.246Z,12.73
2018-12-17T13:41:05.854Z,10.40
2018-12-17T13:43:33.465Z,13.83
2018-12-17T13:46:01.053Z,12.67
2018-12-17T13:48:28.673Z,9.57
2018-12-17T13:50:58.238Z,12.17
2018-12-17T13:53:31.877Z,8.10
2018-12-17T13:55:59.459Z,14.10
2018-12-17T13:58:27.158Z,9.30
2018-12-17T14:00:54.723Z,10.80
2018-12-17T14:03:22.302Z,13.30
2018-12-17T14:05:49.902Z,12.57
2018-12-17T14:08:17.503Z,10.07
2018-12-17T14:10:50.852Z,9.53
2018-12-17T14:13:18.465Z,8.53
2018-12-17T14:15:51.417Z,8.93
2018-12-17T14:18:25.527Z,8.77
2018-12-17T14:20:59.147Z,13.03
2018-12-17T14:23:26.832Z,10.20
2018-12-17T14:25:54.444Z,16.47
2018-12-17T14:28:22.006Z,10.70
2018-12-17T14:30:49.615Z,9.23
2018-12-17T14:33:17.252Z,9.07
2018-12-17T14:35:50.566Z,11.03
2018-12-17T14:38:18.227Z,10.63
2018-12-17T14:40:45.836Z,11.70
2018-12-17T14:43:13.494Z,12.77
2018-12-17T14:45:41.082Z,9.10
2018-12-17T14:48:08.678Z,9.30
2018-12-17T14:50:36.376Z,10.40
2018-12-17T14:53:03.957Z,9.10
2018-12-17T14:55:31.570Z,14.20
2018-12-17T14:57:59.179Z,11.50
2018-12-17T15:00:26.775Z,10.90
2018-12-17T15:02:54.531Z,12.23
2018-12-17T15:05:23.201Z,12.80
2018-12-17T15:07:50.818Z,11.00
2018-12-17T15:10:18.785Z,13.33
2018-12-17T15:12:46.608Z,8.53
2018-12-17T15:15:14.339Z,5.67
2018-12-17T15:17:41.925Z,9.10
2018-12-17T15:20:09.967Z,10.13
2018-12-17T15:22:37.627Z,8.20
2018-12-17T15:25:07.389Z,12.47
2018-12-17T15:27:34.996Z,10.00
2018-12-17T15:30:02.687Z,16.37
2018-12-17T15:32:31.194Z,12.40
2018-12-17T15:34:58.794Z,10.53
2018-12-17T15:37:26.394Z,10.33
2018-12-17T15:39:54.090Z,10.93
2018-12-17T15:42:22.020Z,6.30
2018-12-17T15:44:50.436Z,11.37
2018-12-17T15:47:18.919Z,14.00
2018-12-17T15:49:46.646Z,10.27
2018-12-17T15:52:14.290Z,14.00
2018-12-17T15:54:41.939Z,11.73
2018-12-17T15:57:09.532Z,12.50
2018-12-17T15:59:37.164Z,12.33
2018-12-17T16:02:04.826Z,11.47
2018-12-17T16:04:32.388Z,11.73
2018-12-17T16:07:00.027Z,15.63
2018-12-17T16:09:27.706Z,16.83
2018-12-17T16:11:55.309Z,16.20
2018-12-17T16:14:22.927Z,19.87
2018-12-17T16:16:50.608Z,16.83
2018-12-17T16:19:18.210Z,22.97
2018-12-17T16:21:46.712Z,13.80
2018-12-17T16:24:14.471Z,14.20
2018-12-17T16:26:42.063Z,15.53
2018-12-17T16:29:09.665Z,18.30
2018-12-17T16:31:37.330Z,10.97
2018-12-17T16:34:06.573Z,15.57
2018-12-17T16:36:34.724Z,17.13
2018-12-17T16:39:02.349Z,12.87
2018-12-17T16:41:30.045Z,11.43
2018-12-17T16:43:57.737Z,12.83
2018-12-17T16:46:26.286Z,18.10
2018-12-17T16:48:53.942Z,19.07
2018-12-17T16:51:21.561Z,20.53
2018-12-17T16:53:50.321Z,15.03
2018-12-17T16:56:18.350Z,17.73
2018-12-17T16:58:45.984Z,17.43
2018-12-17T17:01:13.596Z,18.97
2018-12-17T17:03:41.342Z,22.87
2018-12-17T17:06:08.999Z,11.40
2018-12-17T17:08:36.581Z,13.27
2018-12-17T17:11:04.171Z,11.70
2018-12-17T17:13:38.069Z,12.57
2018-12-17T17:16:06.693Z,13.93
2018-12-17T17:18:35.136Z,13.63
2018-12-17T17:21:03.821Z,12.37
2018-12-17T17:23:31.578Z,12.17
2018-12-17T17:25:59.163Z,12.50
2018-12-17T17:28:26.932Z,8.53
2018-12-17T17:30:54.549Z,15.27
2018-12-17T17:33:22.297Z,9.07
2018-12-17T17:35:52.650Z,14.30
2018-12-17T17:38:20.269Z,14.50
2018-12-17T17:40:48.754Z,11.10
2018-12-17T17:43:16.442Z,8.53
2018-12-17T17:45:46.052Z,14.37
2018-12-17T17:48:13.797Z,16.63
2018-12-17T17:50:41.449Z,17.30
2018-12-17T17:53:09.004Z,13.20
2018-12-17T17:55:36.606Z,14.63
2018-12-17T17:58:04.159Z,16.00
2018-12-17T18:00:31.891Z,13.83
2018-12-17T18:02:59.526Z,13.87
2018-12-17T18:05:27.287Z,14.97
2018-12-17T18:07:54.848Z,19.07
2018-12-17T18:10:22.477Z,16.93
2018-12-17T18:12:50.070Z,13.20
2018-12-17T18:15:17.763Z,12.17
2018-12-17T18:17:45.437Z,16.83
2018-12-17T18:20:13.076Z,11.37
2018-12-17T18:22:40.751Z,15.10
2018-12-17T18:25:08.428Z,17.80
2018-12-17T18:27:36.326Z,12.70
2018-12-17T18:30:05.985Z,14.53
2018-12-17T18:32:34.431Z,22.00
2018-12-17T18:35:02.103Z,19.00
2018-12-17T18:37:29.704Z,17.37
2018-12-17T18:39:57.363Z,18.23
2018-12-17T18:42:25.689Z,16.87
2018-12-17T18:44:53.343Z,16.37
2018-12-17T18:47:25.608Z,20.03
2018-12-17T18:49:50.644Z,18.03
2018-12-17T18:52:18.351Z,17.30
2018-12-17T18:54:46.130Z,17.77
2018-12-17T18:57:13.738Z,20.50
2018-12-17T18:59:41.507Z,12.97
2018-12-17T19:02:09.202Z,15.93
2018-12-17T19:04:36.818Z,11.57
2018-12-17T19:07:04.573Z,15.30
2018-12-17T19:09:32.339Z,16.07
2018-12-17T19:12:00.032Z,12.10
2018-12-17T19:14:27.655Z,15.80
2018-12-17T19:16:55.297Z,15.27
2018-12-17T19:19:22.940Z,27.70
2018-12-17T19:21:50.571Z,33.20
2018-12-17T19:24:18.335Z,19.23
2018-12-17T19:26:45.952Z,15.07
2018-12-17T19:29:13.524Z,17.10
2018-12-17T19:31:41.213Z,25.37
2018-12-17T19:34:08.870Z,12.87
2018-12-17T19:36:39.923Z,21.03
2018-12-17T19:39:08.382Z,16.30
2018-12-17T19:41:36.007Z,21.70
2018-12-17T19:44:04.927Z,19.73
2018-12-17T19:46:32.510Z,12.23
2018-12-17T19:49:00.102Z,14.50
2018-12-17T19:51:27.748Z,24.47
2018-12-17T19:53:55.449Z,15.27
2018-12-17T19:56:23.026Z,17.70
2018-12-17T19:58:50.892Z,21.37
2018-12-17T20:01:18.527Z,14.70
2018-12-17T20:03:46.173Z,19.60
2018-12-17T20:06:13.763Z,19.17
2018-12-17T20:08:41.397Z,16.57
2018-12-17T20:11:09.041Z,16.63
2018-12-17T20:13:36.623Z,15.57
2018-12-17T20:16:04.183Z,16.23
2018-12-17T20:18:31.767Z,27.47
2018-12-17T20:20:59.429Z,14.23
2018-12-17T20:23:27.091Z,17.43
2018-12-17T20:25:54.807Z,21.43
2018-12-17T20:28:22.481Z,18.23
2018-12-17T20:30:50.055Z,19.57
2018-12-17T20:33:17.684Z,15.53
2018-12-17T20:35:46.307Z,20.80
2018-12-17T20:38:14.149Z,21.90
2018-12-17T20:40:41.786Z,22.20
2018-12-17T20:43:09.410Z,22.57
2018-12-17T20:45:37.836Z,22.80
2018-12-17T20:48:05.563Z,16.87
2018-12-17T20:50:33.200Z,19.67
2018-12-17T20:53:00.848Z,21.83
2018-12-17T20:55:30.785Z,26.57
2018-12-17T20:57:58.958Z,24.93
2018-12-17T21:00:26.794Z,20.90
2018-12-17T21:03:00.072Z,24.33
2018-12-17T21:05:24.057Z,24.17
2018-12-17T21:07:52.951Z,27.30
2018-12-17T21:10:20.543Z,16.63
2018-12-17T21:12:48.212Z,23.70
2018-12-17T21:15:15.807Z,26.80
2018-12-17T21:17:43.388Z,25.20
2018-12-17T21:20:10.990Z,21.67
2018-12-17T21:22:38.618Z,24.83
2018-12-17T21:25:06.485Z,26.10
2018-12-17T21:27:34.137Z,27.67
2018-12-17T21:30:01.805Z,26.83
2018-12-17T21:32:29.465Z,23.97
2018-12-17T21:34:57.084Z,24.13
2018-12-17T21:37:24.706Z,22.17
2018-12-17T21:39:52.333Z,25.47
2018-12-17T21:42:19.986Z,28.43
2018-12-17T21:44:47.788Z,23.60
2018-12-17T21:47:15.419Z,26.03
2018-12-17T21:49:43.087Z,25.50
2018-12-17T21:52:10.690Z,26.30
2018-12-17T21:54:38.270Z,22.33
2018-12-17T21:57:05.978Z,27.53
2018-12-17T21:59:33.555Z,27.77
2018-12-17T22:02:01.249Z,30.03
2018-12-17T22:04:29.977Z,29.60
2018-12-17T22:06:57.585Z,27.63
2018-12-17T22:09:25.228Z,27.20
2018-12-17T22:11:52.862Z,31.67
2018-12-17T22:14:21.083Z,27.53
2018-12-17T22:16:48.683Z,39.20
2018-12-17T22:19:16.421Z,28.60
2018-12-17T22:21:44.142Z,28.77
2018-12-17T22:24:11.787Z,28.53
2018-12-17T22:26:39.437Z,28.90
2018-12-17T22:29:07.086Z,30.67
2018-12-17T22:31:34.879Z,32.40
2018-12-17T22:34:02.545Z,26.83
2018-12-17T22:36:30.176Z,32.67
2018-12-17T22:38:57.862Z,27.57
2018-12-17T22:41:25.573Z,31.17
2018-12-17T22:43:53.343Z,29.70
2018-12-17T22:46:20.939Z,30.83
2018-12-17T22:48:48.658Z,28.30
2018-12-17T22:51:16.316Z,24.00
2018-12-17T22:53:43.918Z,29.53
2018-12-17T22:56:11.514Z,31.97
2018-12-17T22:58:42.314Z,32.07
2018-12-17T23:01:08.713Z,31.87
2018-12-17T23:03:37.089Z,29.93
2018-12-17T23:06:04.769Z,29.37
2018-12-17T23:08:33.130Z,29.60
2018-12-17T23:11:12.756Z,29.30
2018-12-17T23:13:52.318Z,33.23
2018-12-17T23:16:32.510Z,23.97
2018-12-17T23:18:59.718Z,31.63
2018-12-17T23:21:27.392Z,35.67
2018-12-17T23:23:55.080Z,30.27
2018-12-17T23:26:22.680Z,36.83
2018-12-17T23:28:50.287Z,29.90
2018-12-17T23:31:17.931Z,41.40
2018-12-17T23:33:45.540Z,31.53
2018-12-17T23:36:13.193Z,27.43
2018-12-17T23:38:40.784Z,31.40
2018-12-17T23:41:08.355Z,33.10
2018-12-17T23:43:36.791Z,26.90
2018-12-17T23:46:04.388Z,31.57
2018-12-17T23:48:32.073Z,30.03
2018-12-17T23:50:59.687Z,30.47
2018-12-17T23:53:27.382Z,28.53
2018-12-17T23:55:55.774Z,30.17
2018-12-17T23:58:23.358Z,29.47
